createdAt,value
2018-05-13T00:00:50.619Z,27.23
2018-05-13T00:03:17.053Z,34.97
2018-05-13T00:05:43.415Z,29.17
2018-05-13T00:08:09.867Z,32.97
2018-05-13T00:10:36.433Z,32.03
2018-05-13T00:13:02.839Z,32.13
2018-05-13T00:15:29.237Z,28.93
2018-05-13T00:17:55.902Z,32.83
2018-05-13T00:20:23.297Z,35.00
2018-05-13T00:22:51.504Z,37.00
2018-05-13T00:25:17.938Z,42.97
2018-05-13T00:27:44.377Z,35.70
2018-05-13T00:30:12.784Z,39.37
2018-05-13T00:32:40.634Z,36.20
2018-05-13T00:35:07.124Z,37.67
2018-05-13T00:37:33.985Z,37.93
2018-05-13T00:40:01.176Z,36.20
2018-05-13T00:42:28.176Z,36.43
2018-05-13T00:44:57.897Z,42.70
2018-05-13T00:47:24.837Z,42.93
2018-05-13T00:50:02.138Z,40.47
2018-05-13T00:52:29.576Z,37.73
2018-05-13T00:54:57.375Z,40.77
2018-05-13T00:57:24.112Z,34.27
2018-05-13T00:59:51.639Z,48.03
2018-05-13T01:02:17.999Z,40.17
2018-05-13T01:04:45.834Z,40.03
2018-05-13T01:07:12.304Z,33.37
2018-05-13T01:09:38.741Z,43.13
2018-05-13T01:12:05.129Z,36.87
2018-05-13T01:17:22.624Z,44.07
2018-05-13T01:19:49.286Z,46.47
2018-05-13T01:22:15.466Z,46.47
2018-05-13T01:24:41.768Z,43.30
2018-05-13T01:27:08.429Z,46.17
2018-05-13T01:29:35.014Z,45.50
2018-05-13T01:32:01.272Z,40.17
2018-05-13T01:34:29.339Z,46.47
2018-05-13T01:36:55.513Z,49.30
2018-05-13T01:39:21.815Z,51.20
2018-05-13T01:41:48.781Z,54.20
2018-05-13T01:44:15.112Z,50.07
2018-05-13T01:46:41.487Z,50.90
2018-05-13T01:49:07.719Z,41.10
2018-05-13T01:51:34.747Z,46.97
2018-05-13T01:54:01.350Z,53.90
2018-05-13T01:56:27.655Z,50.93
2018-05-13T01:58:53.847Z,45.53
2018-05-13T02:01:20.615Z,49.07
2018-05-13T02:03:46.823Z,47.03
2018-05-13T02:06:13.175Z,49.80
2018-05-13T02:08:39.781Z,45.10
2018-05-13T02:11:06.021Z,51.17
2018-05-13T02:13:32.378Z,56.93
2018-05-13T02:15:59.282Z,54.30
2018-05-13T02:18:25.570Z,49.13
2018-05-13T02:20:51.999Z,49.57
2018-05-13T02:23:18.333Z,51.83
2018-05-13T02:25:44.661Z,54.17
2018-05-13T02:28:10.929Z,51.47
2018-05-13T02:30:37.204Z,50.93
2018-05-13T02:33:04.301Z,56.53
2018-05-13T02:35:30.939Z,50.43
2018-05-13T02:37:57.292Z,55.33
2018-05-13T02:40:23.928Z,58.90
2018-05-13T02:42:50.849Z,57.60
2018-05-13T02:45:18.298Z,53.37
2018-05-13T02:47:46.454Z,62.13
2018-05-13T02:50:12.771Z,68.23
2018-05-13T02:52:39.092Z,54.33
2018-05-13T02:55:05.356Z,67.03
2018-05-13T02:57:32.425Z,54.60
2018-05-13T02:59:59.591Z,61.43
2018-05-13T03:02:25.813Z,50.07
2018-05-13T03:04:52.099Z,63.27
2018-05-13T03:07:19.898Z,49.70
2018-05-13T03:09:46.108Z,61.50
2018-05-13T03:12:12.411Z,59.20
2018-05-13T03:14:38.755Z,59.43
2018-05-13T03:17:05.029Z,67.30
2018-05-13T03:19:31.252Z,62.30
2018-05-13T03:21:58.274Z,63.30
2018-05-13T03:24:24.583Z,64.23
2018-05-13T03:26:50.870Z,69.47
2018-05-13T03:29:17.121Z,67.33
2018-05-13T03:31:43.373Z,58.50
2018-05-13T03:34:09.647Z,56.03
2018-05-13T03:36:35.909Z,56.77
2018-05-13T03:39:02.624Z,58.50
2018-05-13T03:41:28.911Z,64.37
2018-05-13T03:43:55.136Z,64.00
2018-05-13T03:46:21.311Z,56.63
2018-05-13T03:48:47.500Z,60.03
2018-05-13T03:51:13.730Z,61.27
2018-05-13T03:53:39.951Z,49.33
2018-05-13T03:56:07.281Z,59.93
2018-05-13T03:58:33.636Z,67.97
2018-05-13T04:01:00.358Z,60.50
2018-05-13T04:03:26.562Z,56.67
2018-05-13T04:05:52.913Z,80.60
2018-05-13T04:11:33.450Z,62.17
2018-05-13T04:14:12.472Z,66.43
2018-05-13T04:16:38.778Z,63.60
2018-05-13T04:19:05.800Z,72.10
2018-05-13T04:21:32.826Z,108.03
2018-05-13T04:23:59.295Z,69.37
2018-05-13T04:26:26.018Z,76.97
2018-05-13T04:28:52.479Z,89.67
2018-05-13T04:31:20.642Z,73.90
2018-05-13T04:33:47.658Z,86.40
2018-05-13T04:36:13.874Z,80.13
2018-05-13T04:38:40.204Z,101.83
2018-05-13T04:41:06.548Z,58.23
2018-05-13T04:43:33.896Z,52.03
2018-05-13T04:46:00.184Z,54.03
2018-05-13T04:48:26.559Z,67.87
2018-05-13T04:50:54.296Z,67.17
2018-05-13T04:53:20.616Z,54.23
2018-05-13T04:55:47.301Z,54.90
2018-05-13T04:58:13.903Z,54.67
2018-05-13T05:00:40.235Z,45.80
2018-05-13T05:03:06.465Z,43.00
2018-05-13T05:05:32.767Z,45.07
2018-05-13T05:07:59.695Z,44.50
2018-05-13T05:10:25.917Z,49.47
2018-05-13T05:12:52.153Z,40.20
2018-05-13T05:15:18.968Z,38.83
2018-05-13T05:17:45.245Z,42.83
2018-05-13T05:20:11.425Z,38.87
2018-05-13T05:22:38.955Z,36.97
2018-05-13T05:25:05.377Z,34.40
2018-05-13T05:27:33.340Z,37.10
2018-05-13T05:29:59.613Z,38.00
2018-05-13T05:32:25.869Z,34.80
2018-05-13T05:34:52.807Z,33.20
2018-05-13T05:37:19.445Z,34.70
2018-05-13T05:39:45.682Z,33.07
2018-05-13T05:42:12.826Z,36.43
2018-05-13T05:44:39.161Z,34.07
2018-05-13T05:47:06.240Z,36.17
2018-05-13T05:49:33.608Z,37.03
2018-05-13T05:52:00.267Z,35.13
2018-05-13T05:54:26.880Z,35.60
2018-05-13T05:56:53.518Z,34.37
2018-05-13T05:59:19.905Z,34.73
2018-05-13T06:01:47.657Z,39.70
2018-05-13T06:04:13.879Z,42.60
2018-05-13T06:06:40.724Z,38.70
2018-05-13T06:09:07.117Z,37.73
2018-05-13T06:11:34.092Z,38.30
2018-05-13T06:14:00.387Z,37.33
2018-05-13T06:16:27.022Z,35.20
2018-05-13T06:18:53.983Z,36.13
2018-05-13T06:21:21.058Z,43.97
2018-05-13T06:23:47.476Z,38.37
2018-05-13T06:26:13.957Z,37.80
2018-05-13T06:28:41.003Z,48.20
2018-05-13T06:31:07.276Z,44.27
2018-05-13T06:33:34.965Z,41.00
2018-05-13T06:36:02.017Z,35.20
2018-05-13T06:38:29.066Z,43.63
2018-05-13T06:40:56.140Z,38.53
2018-05-13T06:43:23.606Z,33.90
2018-05-13T06:45:51.595Z,32.43
2018-05-13T06:48:18.202Z,32.30
2018-05-13T06:50:45.161Z,31.70
2018-05-13T06:53:18.784Z,30.93
2018-05-13T06:55:47.262Z,29.70
2018-05-13T06:58:14.159Z,28.73
2018-05-13T07:00:40.383Z,28.17
2018-05-13T07:03:11.372Z,28.07
2018-05-13T07:05:38.364Z,28.60
2018-05-13T07:08:04.535Z,33.50
2018-05-13T07:10:32.565Z,33.77
2018-05-13T07:12:59.144Z,41.60
2018-05-13T07:15:25.335Z,32.00
2018-05-13T07:17:52.036Z,30.10
2018-05-13T07:20:18.325Z,33.33
2018-05-13T07:25:19.748Z,32.37
2018-05-13T07:27:48.337Z,31.30
2018-05-13T07:30:14.814Z,37.03
2018-05-13T07:32:41.637Z,32.83
2018-05-13T07:35:08.332Z,32.27
2018-05-13T07:37:34.902Z,31.17
2018-05-13T07:40:01.812Z,31.93
2018-05-13T07:42:34.746Z,26.33
2018-05-13T07:45:11.101Z,26.53
2018-05-13T07:47:53.821Z,31.70
2018-05-13T07:50:20.226Z,27.90
2018-05-13T07:52:48.084Z,35.13
2018-05-13T07:55:14.677Z,34.60
2018-05-13T07:57:43.094Z,28.10
2018-05-13T08:00:10.782Z,31.53
2018-05-13T08:02:37.308Z,31.77
2018-05-13T08:05:03.825Z,37.40
2018-05-13T08:07:30.488Z,34.60
2018-05-13T08:09:58.039Z,32.17
2018-05-13T08:12:27.429Z,28.70
2018-05-13T08:14:54.172Z,31.03
2018-05-13T08:17:21.735Z,30.00
2018-05-13T08:19:49.125Z,29.90
2018-05-13T08:22:15.645Z,27.70
2018-05-13T08:24:42.262Z,23.20
2018-05-13T08:27:08.873Z,24.57
2018-05-13T08:29:36.205Z,26.03
2018-05-13T08:32:03.596Z,23.67
2018-05-13T08:34:30.136Z,34.13
2018-05-13T08:36:56.723Z,22.00
2018-05-13T08:39:23.131Z,27.00
2018-05-13T08:41:49.541Z,25.10
2018-05-13T08:44:17.229Z,23.53
2018-05-13T08:46:44.885Z,22.97
2018-05-13T08:49:11.376Z,25.93
2018-05-13T08:51:37.829Z,21.00
2018-05-13T08:54:05.064Z,16.20
2018-05-13T08:56:31.850Z,18.10
2018-05-13T08:58:59.949Z,23.47
2018-05-13T09:01:26.826Z,22.50
2018-05-13T09:03:53.998Z,19.93
2018-05-13T09:06:21.000Z,17.50
2018-05-13T09:08:47.858Z,17.77
2018-05-13T09:11:16.025Z,16.03
2018-05-13T09:13:42.478Z,16.57
2018-05-13T09:16:10.449Z,19.30
2018-05-13T09:18:36.884Z,14.40
2018-05-13T09:21:04.191Z,17.07
2018-05-13T09:23:31.461Z,13.20
2018-05-13T09:25:58.586Z,22.00
2018-05-13T09:28:25.410Z,19.07
2018-05-13T09:30:51.962Z,12.00
2018-05-13T09:33:19.167Z,9.07
2018-05-13T09:35:45.578Z,17.77
2018-05-13T09:38:12.167Z,6.73
2018-05-13T09:40:39.712Z,9.10
2018-05-13T09:43:08.014Z,18.13
2018-05-13T09:45:35.676Z,11.63
2018-05-13T09:48:02.202Z,6.90
2018-05-13T09:50:28.816Z,7.57
2018-05-13T09:52:55.482Z,8.20
2018-05-13T09:55:22.427Z,9.07
2018-05-13T09:57:49.684Z,11.63
2018-05-13T10:00:17.372Z,7.83
2018-05-13T10:02:44.905Z,10.10
2018-05-13T10:05:13.135Z,7.73
2018-05-13T10:07:40.436Z,11.10
2018-05-13T10:10:07.694Z,8.30
2018-05-13T10:12:34.381Z,9.50
2018-05-13T10:15:02.265Z,5.00
2018-05-13T10:17:29.379Z,6.80
2018-05-13T10:19:56.864Z,10.50
2018-05-13T10:22:23.901Z,7.20
2018-05-13T10:24:51.569Z,14.77
2018-05-13T10:27:18.224Z,7.40
2018-05-13T10:29:45.067Z,7.53
2018-05-13T10:32:11.719Z,11.57
2018-05-13T10:34:38.740Z,6.40
2018-05-13T10:37:05.384Z,5.63
2018-05-13T10:39:33.049Z,10.57
2018-05-13T10:41:59.542Z,15.40
2018-05-13T10:44:26.919Z,7.07
2018-05-13T10:46:53.953Z,13.03
2018-05-13T10:49:20.454Z,6.03
2018-05-13T10:51:47.198Z,8.43
2018-05-13T10:54:13.751Z,9.27
2018-05-13T10:56:40.263Z,17.27
2018-05-13T10:59:08.314Z,9.00
2018-05-13T11:01:35.126Z,9.10
2018-05-13T11:04:01.724Z,8.07
2018-05-13T11:06:28.722Z,11.07
2018-05-13T11:08:55.889Z,7.00
2018-05-13T11:11:22.829Z,7.90
2018-05-13T11:13:50.056Z,7.90
2018-05-13T11:16:17.209Z,15.77
2018-05-13T11:18:43.776Z,9.33
2018-05-13T11:21:10.199Z,5.50
2018-05-13T11:23:36.858Z,8.50
2018-05-13T11:26:04.131Z,5.77
2018-05-13T11:28:30.745Z,10.13
2018-05-13T11:30:57.243Z,14.00
2018-05-13T11:33:23.863Z,8.07
2018-05-13T11:35:50.684Z,9.80
2018-05-13T11:38:17.212Z,15.23
2018-05-13T11:40:45.027Z,9.63
2018-05-13T11:43:12.777Z,10.13
2018-05-13T11:45:40.611Z,10.87
2018-05-13T11:48:08.198Z,15.87
2018-05-13T11:50:35.375Z,10.40
2018-05-13T11:53:02.367Z,8.97
2018-05-13T11:55:29.077Z,10.30
2018-05-13T11:57:57.521Z,15.57
2018-05-13T12:00:24.861Z,12.33
2018-05-13T12:02:51.272Z,12.17
2018-05-13T12:05:32.859Z,5.27
2018-05-13T12:08:02.200Z,14.73
2018-05-13T12:10:29.010Z,16.53
2018-05-13T12:12:55.617Z,7.10
2018-05-13T12:15:22.422Z,14.57
2018-05-13T12:17:49.629Z,8.77
2018-05-13T12:20:16.517Z,22.07
2018-05-13T12:22:43.369Z,9.97
2018-05-13T12:25:09.850Z,9.73
2018-05-13T12:27:36.535Z,16.13
2018-05-13T12:30:04.733Z,10.70
2018-05-13T12:32:31.309Z,9.50
2018-05-13T12:34:57.958Z,8.90
2018-05-13T12:37:25.259Z,7.10
2018-05-13T12:39:51.670Z,10.70
2018-05-13T12:44:52.407Z,16.20
2018-05-13T12:47:19.594Z,7.50
2018-05-13T12:49:46.107Z,15.57
2018-05-13T12:52:12.601Z,15.23
2018-05-13T12:54:39.546Z,9.57
2018-05-13T12:57:05.975Z,5.67
2018-05-13T12:59:32.440Z,14.67
2018-05-13T13:01:58.964Z,15.20
2018-05-13T13:04:25.817Z,7.90
2018-05-13T13:06:52.978Z,9.83
2018-05-13T13:09:20.082Z,8.13
2018-05-13T13:11:47.932Z,12.80
2018-05-13T13:14:14.437Z,14.60
2018-05-13T13:16:41.120Z,13.37
2018-05-13T13:19:08.303Z,16.00
2018-05-13T13:21:34.911Z,10.70
2018-05-13T13:24:02.233Z,8.53
2018-05-13T13:26:29.040Z,7.20
2018-05-13T13:28:55.881Z,12.37
2018-05-13T13:31:22.378Z,4.57
2018-05-13T13:33:49.646Z,5.60
2018-05-13T13:36:18.257Z,9.70
2018-05-13T13:38:45.307Z,6.17
2018-05-13T13:41:12.423Z,5.20
2018-05-13T13:43:39.269Z,8.47
2018-05-13T13:46:07.027Z,18.23
2018-05-13T13:51:13.468Z,10.27
2018-05-13T13:53:40.014Z,12.20
2018-05-13T13:56:10.092Z,6.60
2018-05-13T13:58:36.565Z,9.33
2018-05-13T14:01:03.244Z,3.30
2018-05-13T14:03:30.134Z,6.67
2018-05-13T14:05:57.105Z,11.23
2018-05-13T14:08:24.342Z,7.07
2018-05-13T14:10:52.118Z,17.13
2018-05-13T14:13:18.710Z,6.83
2018-05-13T14:15:46.159Z,8.00
2018-05-13T14:18:12.716Z,4.07
2018-05-13T14:20:39.447Z,3.53
2018-05-13T14:23:05.972Z,12.07
2018-05-13T15:07:47.475Z,5.10
2018-05-13T15:10:14.019Z,6.37
2018-05-13T15:12:40.514Z,4.33
2018-05-13T15:15:07.037Z,12.37
2018-05-13T15:17:35.385Z,10.00
2018-05-13T15:20:02.033Z,7.63
2018-05-13T15:22:32.969Z,4.27
2018-05-13T15:24:59.624Z,5.70
2018-05-13T15:27:27.836Z,12.00
2018-05-13T15:29:54.907Z,7.63
2018-05-13T15:32:21.694Z,8.23
2018-05-13T15:34:48.442Z,19.63
2018-05-13T15:37:16.101Z,5.83
2018-05-13T15:39:42.925Z,6.57
2018-05-13T15:42:09.691Z,4.53
2018-05-13T15:44:44.034Z,4.37
2018-05-13T15:47:10.575Z,6.87
2018-05-13T15:49:38.709Z,4.67
2018-05-13T15:52:05.318Z,5.77
2018-05-13T15:54:33.490Z,3.90
2018-05-13T15:57:01.128Z,10.23
2018-05-13T15:59:29.182Z,7.57
2018-05-13T16:01:56.056Z,9.80
2018-05-13T16:04:23.309Z,6.23
2018-05-13T16:06:49.814Z,31.03
2018-05-13T16:09:17.959Z,3.40
2018-05-13T16:11:46.130Z,8.30
2018-05-13T16:14:12.673Z,11.10
2018-05-13T16:16:40.362Z,12.10
2018-05-13T16:19:06.858Z,4.00
2018-05-13T16:21:33.295Z,14.97
2018-05-13T16:24:00.014Z,3.80
2018-05-13T16:26:28.233Z,9.17
2018-05-13T16:28:54.790Z,10.30
2018-05-13T16:31:21.248Z,8.67
2018-05-13T16:33:47.656Z,8.97
2018-05-13T16:36:14.340Z,7.93
2018-05-13T16:38:40.760Z,9.07
2018-05-13T16:41:07.409Z,10.93
2018-05-13T16:43:33.887Z,9.30
2018-05-13T16:46:00.354Z,10.67
2018-05-13T16:48:26.750Z,5.43
2018-05-13T16:50:53.160Z,7.47
2018-05-13T16:53:20.010Z,10.10
2018-05-13T16:55:47.043Z,4.20
2018-05-13T16:58:13.901Z,4.00
2018-05-13T17:00:41.134Z,10.40
2018-05-13T17:03:09.195Z,4.00
2018-05-13T17:05:36.130Z,3.27
2018-05-13T17:08:03.782Z,5.00
2018-05-13T17:10:32.086Z,7.80
2018-05-13T17:12:58.805Z,6.67
2018-05-13T17:15:26.094Z,5.37
2018-05-13T17:17:53.403Z,9.07
2018-05-13T17:20:20.600Z,12.20
2018-05-13T17:22:47.947Z,4.10
2018-05-13T17:25:14.541Z,9.10
2018-05-13T17:27:41.743Z,5.37
2018-05-13T17:30:08.243Z,13.67
2018-05-13T17:32:35.494Z,5.63
2018-05-13T17:35:02.084Z,8.47
2018-05-13T17:37:28.797Z,9.30
2018-05-13T17:39:56.033Z,12.47
2018-05-13T17:42:24.245Z,6.40
2018-05-13T17:44:52.597Z,13.43
2018-05-13T17:47:19.115Z,22.47
2018-05-13T17:49:47.448Z,7.87
2018-05-13T17:52:13.996Z,9.03
2018-05-13T17:54:42.297Z,8.37
2018-05-13T17:57:09.304Z,9.10
2018-05-13T17:59:37.541Z,8.30
2018-05-13T18:02:04.193Z,6.60
2018-05-13T18:04:32.446Z,6.40
2018-05-13T18:06:59.206Z,6.27
2018-05-13T18:09:25.830Z,14.43
2018-05-13T18:11:52.651Z,6.20
2018-05-13T18:14:19.762Z,12.40
2018-05-13T18:16:46.571Z,9.90
2018-05-13T18:19:13.495Z,14.03
2018-05-13T18:21:40.210Z,4.60
2018-05-13T18:24:07.063Z,9.23
2018-05-13T18:26:33.599Z,7.83
2018-05-13T18:29:00.510Z,6.47
2018-05-13T18:31:28.766Z,9.03
2018-05-13T18:33:55.893Z,5.33
2018-05-13T18:36:24.062Z,17.77
2018-05-13T18:38:50.821Z,7.27
2018-05-13T18:41:18.192Z,10.47
2018-05-13T18:43:45.498Z,9.00
2018-05-13T18:46:12.078Z,7.43
2018-05-13T18:48:40.534Z,6.53
2018-05-13T18:51:07.020Z,7.47
2018-05-13T18:53:34.114Z,5.33
2018-05-13T18:56:00.556Z,6.20
2018-05-13T18:58:27.153Z,10.57
2018-05-13T19:00:55.337Z,8.30
2018-05-13T19:03:23.640Z,6.50
2018-05-13T19:05:50.172Z,6.50
2018-05-13T19:08:17.281Z,9.03
2018-05-13T19:10:44.279Z,8.17
2018-05-13T19:13:12.675Z,5.70
2018-05-13T19:15:39.082Z,5.63
2018-05-13T19:18:05.590Z,13.90
2018-05-13T19:20:32.097Z,9.80
2018-05-13T19:22:58.603Z,17.00
2018-05-13T19:25:25.121Z,6.27
2018-05-13T19:27:52.368Z,6.80
2018-05-13T19:30:18.803Z,7.70
2018-05-13T19:32:47.031Z,16.47
2018-05-13T19:35:13.536Z,6.53
2018-05-13T19:37:39.962Z,5.00
2018-05-13T19:40:06.708Z,12.17
2018-05-13T19:42:34.680Z,6.37
2018-05-13T19:45:02.107Z,8.80
2018-05-13T19:47:28.874Z,5.63
2018-05-13T19:49:56.748Z,6.80
2018-05-13T19:52:24.062Z,4.43
2018-05-13T19:54:51.288Z,8.63
2018-05-13T19:57:18.361Z,6.40
2018-05-13T19:59:44.860Z,4.90
2018-05-13T20:02:11.497Z,8.50
2018-05-13T20:04:38.124Z,12.50
2018-05-13T20:07:04.728Z,4.93
2018-05-13T20:09:31.702Z,6.67
2018-05-13T20:11:59.402Z,8.17
2018-05-13T20:14:27.714Z,6.97
2018-05-13T20:16:54.328Z,11.73
2018-05-13T20:19:21.004Z,6.20
2018-05-13T20:21:47.705Z,6.60
2018-05-13T20:24:15.315Z,11.93
2018-05-13T20:26:42.289Z,8.20
2018-05-13T20:29:09.316Z,5.87
2018-05-13T20:31:36.107Z,7.23
2018-05-13T20:34:03.556Z,7.73
2018-05-13T20:36:31.361Z,6.77
2018-05-13T20:38:58.993Z,5.40
2018-05-13T20:41:25.533Z,7.27
2018-05-13T20:43:52.803Z,9.87
2018-05-13T20:46:19.458Z,6.57
2018-05-13T20:48:46.187Z,5.50
2018-05-13T20:51:14.006Z,11.03
2018-05-13T20:53:41.371Z,10.60
2018-05-13T20:56:07.917Z,7.90
2018-05-13T20:58:34.587Z,16.53
2018-05-13T21:01:01.160Z,14.03
2018-05-13T21:03:27.724Z,6.00
2018-05-13T21:05:54.285Z,9.10
2018-05-13T21:08:22.523Z,8.63
2018-05-13T21:10:49.205Z,12.20
2018-05-13T21:13:16.112Z,11.47
2018-05-13T21:15:43.071Z,8.67
2018-05-13T21:18:09.945Z,12.77
2018-05-13T21:20:36.647Z,6.40
2018-05-13T21:23:03.259Z,7.23
2018-05-13T21:25:29.770Z,11.90
2018-05-13T21:27:56.734Z,5.03
2018-05-13T21:30:24.064Z,15.30
2018-05-13T21:32:51.307Z,8.87
2018-05-13T21:35:17.833Z,18.20
2018-05-13T21:37:44.784Z,10.00
2018-05-13T21:40:13.026Z,9.63
2018-05-13T21:42:39.593Z,7.70
2018-05-13T21:45:07.356Z,11.83
2018-05-13T21:47:33.964Z,9.33
2018-05-13T21:50:00.716Z,8.70
2018-05-13T21:52:27.261Z,13.10
2018-05-13T21:54:55.325Z,10.50
2018-05-13T21:57:21.865Z,14.30
2018-05-13T21:59:48.411Z,12.87
2018-05-13T22:02:16.644Z,10.60
2018-05-13T22:04:54.331Z,12.13
2018-05-13T22:07:21.777Z,10.30
2018-05-13T22:09:48.292Z,15.83
2018-05-13T22:12:14.810Z,8.10
2018-05-13T22:14:42.433Z,9.33
2018-05-13T22:17:10.000Z,11.20
2018-05-13T22:19:37.233Z,9.90
2018-05-13T22:22:04.413Z,13.17
2018-05-13T22:24:31.781Z,11.60
2018-05-13T22:26:59.186Z,6.93
2018-05-13T22:29:25.783Z,10.97
2018-05-13T22:31:52.445Z,17.47
2018-05-13T22:34:19.660Z,14.23
2018-05-13T22:36:46.131Z,7.47
2018-05-13T22:39:12.665Z,9.90
2018-05-13T22:41:39.204Z,14.30
2018-05-13T22:44:05.542Z,14.20
2018-05-13T22:46:32.821Z,12.13
2018-05-13T22:48:59.248Z,7.73
2018-05-13T22:51:27.045Z,13.87
2018-05-13T22:53:53.405Z,7.10
2018-05-13T22:56:19.838Z,6.57
2018-05-13T22:58:46.546Z,9.33
2018-05-13T23:01:14.007Z,10.37
2018-05-13T23:03:40.510Z,8.80
2018-05-13T23:06:06.969Z,14.87
2018-05-13T23:08:33.487Z,7.93
2018-05-13T23:11:01.627Z,6.87
2018-05-13T23:13:29.728Z,10.57
2018-05-13T23:15:57.249Z,9.00
2018-05-13T23:18:23.753Z,6.70
2018-05-13T23:20:50.201Z,8.40
2018-05-13T23:23:16.585Z,25.63
2018-05-13T23:25:43.013Z,7.63
2018-05-13T23:28:09.857Z,6.77
2018-05-13T23:30:36.230Z,11.33
2018-05-13T23:33:02.638Z,8.93
2018-05-13T23:35:30.810Z,10.63
2018-05-13T23:37:57.604Z,8.00
2018-05-13T23:40:24.685Z,12.40
2018-05-13T23:42:51.073Z,17.67
2018-05-13T23:45:17.444Z,14.00
2018-05-13T23:47:43.809Z,12.00
2018-05-13T23:50:10.518Z,8.23
2018-05-13T23:52:37.358Z,10.23
2018-05-13T23:55:05.312Z,12.90
2018-05-13T23:57:32.839Z,10.40
